sensor_id;sensor_type;location;lat;lon;timestamp;P1;durP1;ratioP1;P2;durP2;ratioP2
25824;SDS011;13658;44.534;18.694;2023-05-15T00:01:38;16.30;;;12.07;;
25824;SDS011;13658;44.534;18.694;2023-05-15T00:04:03;14.40;;;11.35;;
25824;SDS011;13658;44.534;18.694;2023-05-15T00:06:30;15.90;;;10.95;;
25824;SDS011;13658;44.534;18.694;2023-05-15T00:08:56;13.15;;;9.80;;
25824;SDS011;13658;44.534;18.694;2023-05-15T00:11:22;13.70;;;9.70;;
25824;SDS011;13658;44.534;18.694;2023-05-15T00:13:48;12.05;;;9.20;;
25824;SDS011;13658;44.534;18.694;2023-05-15T00:16:15;11.48;;;8.52;;
25824;SDS011;13658;44.534;18.694;2023-05-15T00:18:41;9.98;;;7.72;;
25824;SDS011;13658;44.534;18.694;2023-05-15T00:21:07;9.10;;;6.57;;
25824;SDS011;13658;44.534;18.694;2023-05-15T00:23:33;7.05;;;5.95;;
25824;SDS011;13658;44.534;18.694;2023-05-15T00:25:59;9.15;;;5.32;;
25824;SDS011;13658;44.534;18.694;2023-05-15T00:28:25;6.93;;;5.60;;
25824;SDS011;13658;44.534;18.694;2023-05-15T00:30:51;5.60;;;4.68;;
25824;SDS011;13658;44.534;18.694;2023-05-15T00:33:17;6.80;;;4.20;;
25824;SDS011;13658;44.534;18.694;2023-05-15T00:35:43;6.47;;;3.78;;
25824;SDS011;13658;44.534;18.694;2023-05-15T00:38:09;10.43;;;5.25;;
25824;SDS011;13658;44.534;18.694;2023-05-15T00:40:35;5.82;;;4.13;;
25824;SDS011;13658;44.534;18.694;2023-05-15T00:43:03;7.95;;;4.65;;
25824;SDS011;13658;44.534;18.694;2023-05-15T00:45:29;4.07;;;2.40;;
25824;SDS011;13658;44.534;18.694;2023-05-15T00:47:56;3.88;;;2.70;;
25824;SDS011;13658;44.534;18.694;2023-05-15T00:50:23;2.50;;;2.00;;
25824;SDS011;13658;44.534;18.694;2023-05-15T00:52:49;4.72;;;2.00;;
25824;SDS011;13658;44.534;18.694;2023-05-15T00:55:15;5.88;;;2.10;;
25824;SDS011;13658;44.534;18.694;2023-05-15T00:57:42;2.47;;;1.90;;
25824;SDS011;13658;44.534;18.694;2023-05-15T01:00:08;3.00;;;2.15;;
25824;SDS011;13658;44.534;18.694;2023-05-15T01:02:35;5.13;;;2.42;;
25824;SDS011;13658;44.534;18.694;2023-05-15T01:05:02;3.83;;;2.60;;
25824;SDS011;13658;44.534;18.694;2023-05-15T01:07:32;3.40;;;2.70;;
25824;SDS011;13658;44.534;18.694;2023-05-15T01:10:02;3.42;;;2.33;;
25824;SDS011;13658;44.534;18.694;2023-05-15T01:12:29;3.67;;;2.00;;
25824;SDS011;13658;44.534;18.694;2023-05-15T01:14:56;3.47;;;1.90;;
25824;SDS011;13658;44.534;18.694;2023-05-15T01:17:22;3.28;;;2.20;;
25824;SDS011;13658;44.534;18.694;2023-05-15T01:19:49;3.05;;;2.55;;
25824;SDS011;13658;44.534;18.694;2023-05-15T01:27:38;2.45;;;2.25;;
25824;SDS011;13658;44.534;18.694;2023-05-15T01:30:14;2.22;;;1.90;;
25824;SDS011;13658;44.534;18.694;2023-05-15T01:32:51;2.88;;;1.90;;
25824;SDS011;13658;44.534;18.694;2023-05-15T01:35:38;2.67;;;1.63;;
25824;SDS011;13658;44.534;18.694;2023-05-15T01:38:18;2.13;;;1.73;;
25824;SDS011;13658;44.534;18.694;2023-05-15T01:44:10;2.33;;;1.50;;
25824;SDS011;13658;44.534;18.694;2023-05-15T01:46:45;4.03;;;1.60;;
25824;SDS011;13658;44.534;18.694;2023-05-15T01:49:16;1.70;;;1.60;;
25824;SDS011;13658;44.534;18.694;2023-05-15T01:51:44;3.33;;;1.55;;
25824;SDS011;13658;44.534;18.694;2023-05-15T01:54:15;5.18;;;2.20;;
25824;SDS011;13658;44.534;18.694;2023-05-15T01:56:42;2.40;;;2.10;;
25824;SDS011;13658;44.534;18.694;2023-05-15T01:59:10;5.80;;;3.17;;
25824;SDS011;13658;44.534;18.694;2023-05-15T02:01:38;42.50;;;17.05;;
25824;SDS011;13658;44.534;18.694;2023-05-15T02:04:05;82.25;;;26.75;;
25824;SDS011;13658;44.534;18.694;2023-05-15T02:06:32;77.13;;;23.73;;
25824;SDS011;13658;44.534;18.694;2023-05-15T02:09:00;93.68;;;27.80;;
25824;SDS011;13658;44.534;18.694;2023-05-15T02:11:29;80.72;;;23.52;;
25824;SDS011;13658;44.534;18.694;2023-05-15T02:13:55;78.53;;;23.23;;
25824;SDS011;13658;44.534;18.694;2023-05-15T02:16:23;53.97;;;18.30;;
25824;SDS011;13658;44.534;18.694;2023-05-15T02:18:49;45.53;;;16.30;;
25824;SDS011;13658;44.534;18.694;2023-05-15T02:21:16;40.20;;;15.57;;
25824;SDS011;13658;44.534;18.694;2023-05-15T02:23:42;35.45;;;13.38;;
25824;SDS011;13658;44.534;18.694;2023-05-15T02:31:58;18.10;;;7.70;;
25824;SDS011;13658;44.534;18.694;2023-05-15T02:37:45;8.07;;;4.22;;
25824;SDS011;13658;44.534;18.694;2023-05-15T02:40:13;9.38;;;4.60;;
25824;SDS011;13658;44.534;18.694;2023-05-15T02:42:40;8.13;;;3.88;;
25824;SDS011;13658;44.534;18.694;2023-05-15T02:45:08;9.05;;;4.25;;
25824;SDS011;13658;44.534;18.694;2023-05-15T02:47:35;8.13;;;4.10;;
25824;SDS011;13658;44.534;18.694;2023-05-15T02:50:02;6.93;;;3.97;;
25824;SDS011;13658;44.534;18.694;2023-05-15T02:52:32;6.72;;;3.53;;
25824;SDS011;13658;44.534;18.694;2023-05-15T02:54:59;4.72;;;2.88;;
25824;SDS011;13658;44.534;18.694;2023-05-15T02:57:25;6.38;;;3.75;;
25824;SDS011;13658;44.534;18.694;2023-05-15T02:59:51;7.57;;;4.00;;
25824;SDS011;13658;44.534;18.694;2023-05-15T03:02:18;6.55;;;3.35;;
25824;SDS011;13658;44.534;18.694;2023-05-15T03:04:44;6.15;;;3.13;;
25824;SDS011;13658;44.534;18.694;2023-05-15T03:07:11;7.57;;;3.53;;
25824;SDS011;13658;44.534;18.694;2023-05-15T03:09:38;5.88;;;3.03;;
25824;SDS011;13658;44.534;18.694;2023-05-15T03:12:05;8.85;;;3.85;;
25824;SDS011;13658;44.534;18.694;2023-05-15T03:14:32;10.77;;;4.47;;
25824;SDS011;13658;44.534;18.694;2023-05-15T03:16:58;6.78;;;3.70;;
25824;SDS011;13658;44.534;18.694;2023-05-15T03:19:24;8.27;;;3.92;;
25824;SDS011;13658;44.534;18.694;2023-05-15T03:21:50;7.25;;;3.55;;
25824;SDS011;13658;44.534;18.694;2023-05-15T03:24:16;9.55;;;4.05;;
25824;SDS011;13658;44.534;18.694;2023-05-15T03:26:42;9.75;;;4.20;;
25824;SDS011;13658;44.534;18.694;2023-05-15T03:29:09;8.57;;;4.38;;
25824;SDS011;13658;44.534;18.694;2023-05-15T03:31:35;9.70;;;4.65;;
25824;SDS011;13658;44.534;18.694;2023-05-15T03:34:01;14.85;;;5.63;;
25824;SDS011;13658;44.534;18.694;2023-05-15T03:36:27;11.35;;;5.18;;
25824;SDS011;13658;44.534;18.694;2023-05-15T03:38:53;10.75;;;5.28;;
25824;SDS011;13658;44.534;18.694;2023-05-15T03:41:19;10.70;;;4.53;;
25824;SDS011;13658;44.534;18.694;2023-05-15T03:43:46;11.52;;;5.57;;
25824;SDS011;13658;44.534;18.694;2023-05-15T03:46:15;11.88;;;5.70;;
25824;SDS011;13658;44.534;18.694;2023-05-15T03:48:44;12.95;;;5.05;;
25824;SDS011;13658;44.534;18.694;2023-05-15T03:54:14;13.57;;;5.85;;
25824;SDS011;13658;44.534;18.694;2023-05-15T03:56:40;12.05;;;5.47;;
25824;SDS011;13658;44.534;18.694;2023-05-15T03:59:08;9.82;;;5.35;;
25824;SDS011;13658;44.534;18.694;2023-05-15T04:01:34;13.35;;;5.45;;
25824;SDS011;13658;44.534;18.694;2023-05-15T04:04:00;18.42;;;6.78;;
25824;SDS011;13658;44.534;18.694;2023-05-15T04:06:26;13.27;;;5.45;;
25824;SDS011;13658;44.534;18.694;2023-05-15T04:08:53;16.58;;;6.78;;
25824;SDS011;13658;44.534;18.694;2023-05-15T04:17:50;18.42;;;7.32;;
25824;SDS011;13658;44.534;18.694;2023-05-15T04:20:19;19.27;;;8.32;;
25824;SDS011;13658;44.534;18.694;2023-05-15T04:22:46;25.58;;;9.65;;
25824;SDS011;13658;44.534;18.694;2023-05-15T04:25:13;21.83;;;10.48;;
25824;SDS011;13658;44.534;18.694;2023-05-15T04:27:40;24.20;;;9.73;;
25824;SDS011;13658;44.534;18.694;2023-05-15T04:30:08;26.85;;;11.00;;
25824;SDS011;13658;44.534;18.694;2023-05-15T04:32:35;24.85;;;10.20;;
25824;SDS011;13658;44.534;18.694;2023-05-15T04:35:02;26.42;;;10.07;;
25824;SDS011;13658;44.534;18.694;2023-05-15T04:37:34;17.88;;;9.25;;
25824;SDS011;13658;44.534;18.694;2023-05-15T04:40:01;15.68;;;8.32;;
25824;SDS011;13658;44.534;18.694;2023-05-15T04:42:27;15.43;;;8.52;;
25824;SDS011;13658;44.534;18.694;2023-05-15T04:44:53;16.77;;;8.60;;
25824;SDS011;13658;44.534;18.694;2023-05-15T04:47:19;14.75;;;7.90;;
25824;SDS011;13658;44.534;18.694;2023-05-15T04:49:45;12.07;;;7.35;;
25824;SDS011;13658;44.534;18.694;2023-05-15T04:52:14;8.73;;;4.80;;
25824;SDS011;13658;44.534;18.694;2023-05-15T04:54:40;10.52;;;4.93;;
25824;SDS011;13658;44.534;18.694;2023-05-15T04:57:07;10.55;;;5.25;;
25824;SDS011;13658;44.534;18.694;2023-05-15T04:59:33;4.72;;;2.90;;
25824;SDS011;13658;44.534;18.694;2023-05-15T05:01:59;5.40;;;4.13;;
25824;SDS011;13658;44.534;18.694;2023-05-15T05:04:25;5.82;;;4.10;;
25824;SDS011;13658;44.534;18.694;2023-05-15T05:06:51;8.13;;;4.63;;
25824;SDS011;13658;44.534;18.694;2023-05-15T05:09:18;4.82;;;2.92;;
25824;SDS011;13658;44.534;18.694;2023-05-15T05:11:44;6.03;;;3.40;;
25824;SDS011;13658;44.534;18.694;2023-05-15T05:14:11;8.40;;;4.72;;
25824;SDS011;13658;44.534;18.694;2023-05-15T05:16:40;3.22;;;2.35;;
25824;SDS011;13658;44.534;18.694;2023-05-15T05:19:08;3.25;;;2.20;;
25824;SDS011;13658;44.534;18.694;2023-05-15T05:21:34;4.03;;;2.00;;
25824;SDS011;13658;44.534;18.694;2023-05-15T05:24:00;4.03;;;2.35;;
25824;SDS011;13658;44.534;18.694;2023-05-15T05:26:26;2.85;;;2.50;;
25824;SDS011;13658;44.534;18.694;2023-05-15T05:28:53;4.95;;;2.95;;
25824;SDS011;13658;44.534;18.694;2023-05-15T05:31:19;4.35;;;3.65;;
25824;SDS011;13658;44.534;18.694;2023-05-15T05:33:45;5.20;;;4.22;;
25824;SDS011;13658;44.534;18.694;2023-05-15T05:36:13;4.32;;;3.60;;
25824;SDS011;13658;44.534;18.694;2023-05-15T05:38:40;3.17;;;2.88;;
25824;SDS011;13658;44.534;18.694;2023-05-15T05:41:06;2.88;;;2.40;;
25824;SDS011;13658;44.534;18.694;2023-05-15T05:43:32;5.18;;;3.35;;
25824;SDS011;13658;44.534;18.694;2023-05-15T05:45:58;5.70;;;4.28;;
25824;SDS011;13658;44.534;18.694;2023-05-15T05:48:24;3.38;;;2.60;;
25824;SDS011;13658;44.534;18.694;2023-05-15T05:50:51;3.58;;;2.85;;
25824;SDS011;13658;44.534;18.694;2023-05-15T05:53:17;3.95;;;3.45;;
25824;SDS011;13658;44.534;18.694;2023-05-15T05:55:43;4.43;;;3.65;;
25824;SDS011;13658;44.534;18.694;2023-05-15T05:58:09;5.15;;;3.42;;
25824;SDS011;13658;44.534;18.694;2023-05-15T06:00:35;7.22;;;5.15;;
25824;SDS011;13658;44.534;18.694;2023-05-15T06:03:01;21.50;;;13.93;;
25824;SDS011;13658;44.534;18.694;2023-05-15T06:05:27;8.38;;;6.35;;
25824;SDS011;13658;44.534;18.694;2023-05-15T06:07:53;10.57;;;6.97;;
25824;SDS011;13658;44.534;18.694;2023-05-15T06:10:20;9.45;;;7.13;;
25824;SDS011;13658;44.534;18.694;2023-05-15T06:12:46;11.43;;;8.10;;
25824;SDS011;13658;44.534;18.694;2023-05-15T06:15:13;4.47;;;3.83;;
25824;SDS011;13658;44.534;18.694;2023-05-15T06:17:40;4.28;;;2.40;;
25824;SDS011;13658;44.534;18.694;2023-05-15T06:20:06;5.10;;;3.15;;
25824;SDS011;13658;44.534;18.694;2023-05-15T06:22:33;2.75;;;2.35;;
25824;SDS011;13658;44.534;18.694;2023-05-15T06:25:00;8.30;;;6.28;;
25824;SDS011;13658;44.534;18.694;2023-05-15T06:27:27;9.25;;;6.43;;
25824;SDS011;13658;44.534;18.694;2023-05-15T06:29:53;6.88;;;4.57;;
25824;SDS011;13658;44.534;18.694;2023-05-15T06:32:19;6.95;;;4.55;;
25824;SDS011;13658;44.534;18.694;2023-05-15T06:34:45;6.35;;;3.25;;
25824;SDS011;13658;44.534;18.694;2023-05-15T06:37:11;10.02;;;6.55;;
25824;SDS011;13658;44.534;18.694;2023-05-15T06:39:38;22.80;;;12.70;;
25824;SDS011;13658;44.534;18.694;2023-05-15T06:42:04;4.53;;;2.85;;
25824;SDS011;13658;44.534;18.694;2023-05-15T06:44:33;6.40;;;4.82;;
25824;SDS011;13658;44.534;18.694;2023-05-15T06:46:59;10.68;;;9.60;;
25824;SDS011;13658;44.534;18.694;2023-05-15T06:49:25;8.18;;;6.07;;
25824;SDS011;13658;44.534;18.694;2023-05-15T06:51:51;4.65;;;3.13;;
25824;SDS011;13658;44.534;18.694;2023-05-15T06:54:19;5.25;;;3.80;;
25824;SDS011;13658;44.534;18.694;2023-05-15T06:56:45;10.82;;;8.15;;
25824;SDS011;13658;44.534;18.694;2023-05-15T06:59:11;10.20;;;5.30;;
25824;SDS011;13658;44.534;18.694;2023-05-15T07:01:37;15.63;;;11.75;;
25824;SDS011;13658;44.534;18.694;2023-05-15T07:04:03;13.68;;;8.80;;
25824;SDS011;13658;44.534;18.694;2023-05-15T07:06:29;19.75;;;14.85;;
25824;SDS011;13658;44.534;18.694;2023-05-15T07:08:56;3.72;;;2.90;;
25824;SDS011;13658;44.534;18.694;2023-05-15T07:11:23;13.00;;;8.43;;
25824;SDS011;13658;44.534;18.694;2023-05-15T07:13:50;4.88;;;4.03;;
25824;SDS011;13658;44.534;18.694;2023-05-15T07:16:17;6.10;;;4.20;;
25824;SDS011;13658;44.534;18.694;2023-05-15T07:18:43;4.22;;;3.13;;
25824;SDS011;13658;44.534;18.694;2023-05-15T07:21:09;4.55;;;3.45;;
25824;SDS011;13658;44.534;18.694;2023-05-15T07:23:35;3.33;;;2.42;;
25824;SDS011;13658;44.534;18.694;2023-05-15T07:26:01;5.85;;;3.40;;
25824;SDS011;13658;44.534;18.694;2023-05-15T07:28:27;5.15;;;4.05;;
25824;SDS011;13658;44.534;18.694;2023-05-15T07:30:53;7.35;;;5.43;;
25824;SDS011;13658;44.534;18.694;2023-05-15T07:33:19;4.43;;;3.42;;
25824;SDS011;13658;44.534;18.694;2023-05-15T07:35:45;3.30;;;2.47;;
25824;SDS011;13658;44.534;18.694;2023-05-15T07:38:11;72.95;;;39.53;;
25824;SDS011;13658;44.534;18.694;2023-05-15T07:40:36;5.25;;;3.55;;
25824;SDS011;13658;44.534;18.694;2023-05-15T07:43:02;4.88;;;3.90;;
25824;SDS011;13658;44.534;18.694;2023-05-15T07:45:28;3.35;;;2.83;;
25824;SDS011;13658;44.534;18.694;2023-05-15T07:47:54;15.63;;;11.90;;
25824;SDS011;13658;44.534;18.694;2023-05-15T07:50:21;6.53;;;4.75;;
25824;SDS011;13658;44.534;18.694;2023-05-15T07:52:47;3.92;;;2.75;;
25824;SDS011;13658;44.534;18.694;2023-05-15T07:55:13;6.97;;;4.60;;
25824;SDS011;13658;44.534;18.694;2023-05-15T07:57:39;2.83;;;1.73;;
25824;SDS011;13658;44.534;18.694;2023-05-15T08:00:05;2.50;;;1.73;;
25824;SDS011;13658;44.534;18.694;2023-05-15T08:02:39;2.40;;;2.20;;
25824;SDS011;13658;44.534;18.694;2023-05-15T08:05:06;22.52;;;15.80;;
25824;SDS011;13658;44.534;18.694;2023-05-15T08:07:33;2.78;;;2.20;;
25824;SDS011;13658;44.534;18.694;2023-05-15T08:09:59;4.25;;;2.92;;
25824;SDS011;13658;44.534;18.694;2023-05-15T08:12:25;3.15;;;2.40;;
25824;SDS011;13658;44.534;18.694;2023-05-15T08:14:53;12.93;;;9.45;;
25824;SDS011;13658;44.534;18.694;2023-05-15T08:17:20;28.98;;;20.02;;
25824;SDS011;13658;44.534;18.694;2023-05-15T08:19:47;23.13;;;14.55;;
25824;SDS011;13658;44.534;18.694;2023-05-15T08:22:13;3.78;;;2.65;;
25824;SDS011;13658;44.534;18.694;2023-05-15T08:24:40;144.82;;;78.93;;
25824;SDS011;13658;44.534;18.694;2023-05-15T08:27:07;30.35;;;20.63;;
25824;SDS011;13658;44.534;18.694;2023-05-15T08:29:36;13.90;;;8.75;;
25824;SDS011;13658;44.534;18.694;2023-05-15T08:32:04;2.58;;;1.42;;
25824;SDS011;13658;44.534;18.694;2023-05-15T08:34:34;2.33;;;1.70;;
25824;SDS011;13658;44.534;18.694;2023-05-15T08:37:00;53.47;;;32.40;;
25824;SDS011;13658;44.534;18.694;2023-05-15T08:39:26;4.38;;;2.85;;
25824;SDS011;13658;44.534;18.694;2023-05-15T08:44:35;16.05;;;10.10;;
25824;SDS011;13658;44.534;18.694;2023-05-15T08:47:02;93.55;;;66.43;;
25824;SDS011;13658;44.534;18.694;2023-05-15T08:52:16;4.05;;;1.13;;
25824;SDS011;13658;44.534;18.694;2023-05-15T08:54:44;1.20;;;1.10;;
25824;SDS011;13658;44.534;18.694;2023-05-15T08:57:12;26.58;;;16.35;;
25824;SDS011;13658;44.534;18.694;2023-05-15T08:59:39;6.68;;;4.75;;
25824;SDS011;13658;44.534;18.694;2023-05-15T09:02:05;2.45;;;2.13;;
25824;SDS011;13658;44.534;18.694;2023-05-15T09:04:32;41.22;;;29.40;;
25824;SDS011;13658;44.534;18.694;2023-05-15T09:06:58;19.83;;;14.57;;
25824;SDS011;13658;44.534;18.694;2023-05-15T09:09:26;48.35;;;33.40;;
25824;SDS011;13658;44.534;18.694;2023-05-15T09:11:53;5.82;;;2.55;;
25824;SDS011;13658;44.534;18.694;2023-05-15T09:14:20;2.97;;;2.45;;
25824;SDS011;13658;44.534;18.694;2023-05-15T09:16:47;30.25;;;21.30;;
25824;SDS011;13658;44.534;18.694;2023-05-15T09:19:15;128.55;;;77.10;;
25824;SDS011;13658;44.534;18.694;2023-05-15T09:21:43;7.15;;;4.53;;
25824;SDS011;13658;44.534;18.694;2023-05-15T09:24:21;4.70;;;3.45;;
25824;SDS011;13658;44.534;18.694;2023-05-15T09:29:29;11.07;;;8.45;;
25824;SDS011;13658;44.534;18.694;2023-05-15T09:31:55;7.47;;;4.20;;
25824;SDS011;13658;44.534;18.694;2023-05-15T09:34:32;13.30;;;9.70;;
25824;SDS011;13658;44.534;18.694;2023-05-15T09:37:00;7.50;;;4.28;;
25824;SDS011;13658;44.534;18.694;2023-05-15T09:39:28;4.65;;;3.53;;
25824;SDS011;13658;44.534;18.694;2023-05-15T09:42:08;5.82;;;3.28;;
25824;SDS011;13658;44.534;18.694;2023-05-15T09:44:38;5.75;;;3.90;;
25824;SDS011;13658;44.534;18.694;2023-05-15T09:47:05;7.93;;;4.53;;
25824;SDS011;13658;44.534;18.694;2023-05-15T09:49:33;4.70;;;3.15;;
25824;SDS011;13658;44.534;18.694;2023-05-15T09:52:00;4.15;;;3.05;;
25824;SDS011;13658;44.534;18.694;2023-05-15T09:54:26;3.03;;;2.15;;
25824;SDS011;13658;44.534;18.694;2023-05-15T09:56:54;4.13;;;2.70;;
25824;SDS011;13658;44.534;18.694;2023-05-15T09:59:21;4.95;;;2.60;;
25824;SDS011;13658;44.534;18.694;2023-05-15T10:01:50;2.65;;;2.10;;
25824;SDS011;13658;44.534;18.694;2023-05-15T10:04:17;4.57;;;2.10;;
25824;SDS011;13658;44.534;18.694;2023-05-15T10:06:46;2.42;;;1.80;;
25824;SDS011;13658;44.534;18.694;2023-05-15T10:09:13;7.25;;;2.42;;
25824;SDS011;13658;44.534;18.694;2023-05-15T10:11:41;2.72;;;2.30;;
25824;SDS011;13658;44.534;18.694;2023-05-15T10:14:09;4.93;;;2.90;;
25824;SDS011;13658;44.534;18.694;2023-05-15T10:16:39;3.95;;;2.90;;
25824;SDS011;13658;44.534;18.694;2023-05-15T10:19:06;5.15;;;4.07;;
25824;SDS011;13658;44.534;18.694;2023-05-15T10:21:35;5.20;;;2.08;;
25824;SDS011;13658;44.534;18.694;2023-05-15T10:24:03;4.47;;;3.53;;
25824;SDS011;13658;44.534;18.694;2023-05-15T10:29:08;1.83;;;1.52;;
25824;SDS011;13658;44.534;18.694;2023-05-15T10:31:38;4.22;;;1.92;;
25824;SDS011;13658;44.534;18.694;2023-05-15T10:34:05;3.58;;;2.80;;
25824;SDS011;13658;44.534;18.694;2023-05-15T10:36:32;1.40;;;1.17;;
25824;SDS011;13658;44.534;18.694;2023-05-15T10:39:01;6.97;;;4.03;;
25824;SDS011;13658;44.534;18.694;2023-05-15T10:41:28;3.03;;;1.40;;
25824;SDS011;13658;44.534;18.694;2023-05-15T10:43:59;3.55;;;1.70;;
25824;SDS011;13658;44.534;18.694;2023-05-15T10:46:29;3.70;;;2.67;;
25824;SDS011;13658;44.534;18.694;2023-05-15T10:48:57;3.28;;;2.90;;
25824;SDS011;13658;44.534;18.694;2023-05-15T10:51:28;3.50;;;2.53;;
25824;SDS011;13658;44.534;18.694;2023-05-15T10:53:56;4.97;;;2.58;;
25824;SDS011;13658;44.534;18.694;2023-05-15T10:56:28;3.67;;;2.80;;
25824;SDS011;13658;44.534;18.694;2023-05-15T10:58:55;3.88;;;2.72;;
25824;SDS011;13658;44.534;18.694;2023-05-15T11:01:28;4.63;;;2.97;;
25824;SDS011;13658;44.534;18.694;2023-05-15T11:04:15;4.80;;;2.95;;
25824;SDS011;13658;44.534;18.694;2023-05-15T11:06:45;4.45;;;3.20;;
25824;SDS011;13658;44.534;18.694;2023-05-15T11:11:59;3.83;;;2.35;;
25824;SDS011;13658;44.534;18.694;2023-05-15T11:14:27;3.92;;;2.42;;
25824;SDS011;13658;44.534;18.694;2023-05-15T11:16:55;9.82;;;5.78;;
25824;SDS011;13658;44.534;18.694;2023-05-15T11:19:22;2.35;;;1.80;;
25824;SDS011;13658;44.534;18.694;2023-05-15T11:22:05;6.93;;;3.13;;
25824;SDS011;13658;44.534;18.694;2023-05-15T11:27:30;3.58;;;2.63;;
25824;SDS011;13658;44.534;18.694;2023-05-15T11:30:03;4.18;;;2.30;;
25824;SDS011;13658;44.534;18.694;2023-05-15T11:35:11;4.50;;;2.03;;
25824;SDS011;13658;44.534;18.694;2023-05-15T11:40:13;2.75;;;1.90;;
25824;SDS011;13658;44.534;18.694;2023-05-15T11:43:03;5.60;;;2.07;;
25824;SDS011;13658;44.534;18.694;2023-05-15T11:48:14;3.30;;;2.00;;
25824;SDS011;13658;44.534;18.694;2023-05-15T11:50:41;5.15;;;2.70;;
25824;SDS011;13658;44.534;18.694;2023-05-15T11:53:08;7.63;;;3.90;;
25824;SDS011;13658;44.534;18.694;2023-05-15T11:55:35;6.72;;;2.92;;
25824;SDS011;13658;44.534;18.694;2023-05-15T11:58:03;6.00;;;3.33;;
25824;SDS011;13658;44.534;18.694;2023-05-15T12:00:30;9.32;;;5.53;;
25824;SDS011;13658;44.534;18.694;2023-05-15T12:02:56;19.05;;;7.18;;
25824;SDS011;13658;44.534;18.694;2023-05-15T12:05:22;8.43;;;4.75;;
25824;SDS011;13658;44.534;18.694;2023-05-15T12:07:48;6.43;;;3.60;;
25824;SDS011;13658;44.534;18.694;2023-05-15T12:10:14;6.40;;;4.28;;
25824;SDS011;13658;44.534;18.694;2023-05-15T12:12:41;4.40;;;4.00;;
25824;SDS011;13658;44.534;18.694;2023-05-15T12:15:08;6.32;;;3.85;;
25824;SDS011;13658;44.534;18.694;2023-05-15T12:17:36;6.85;;;4.82;;
25824;SDS011;13658;44.534;18.694;2023-05-15T12:20:15;7.47;;;3.97;;
25824;SDS011;13658;44.534;18.694;2023-05-15T12:22:42;5.80;;;2.90;;
25824;SDS011;13658;44.534;18.694;2023-05-15T12:25:09;5.25;;;3.78;;
25824;SDS011;13658;44.534;18.694;2023-05-15T12:27:37;4.68;;;2.78;;
25824;SDS011;13658;44.534;18.694;2023-05-15T12:30:04;4.15;;;3.15;;
25824;SDS011;13658;44.534;18.694;2023-05-15T12:32:35;20.27;;;12.05;;
25824;SDS011;13658;44.534;18.694;2023-05-15T12:35:02;15.57;;;10.23;;
25824;SDS011;13658;44.534;18.694;2023-05-15T12:37:33;4.72;;;3.30;;
25824;SDS011;13658;44.534;18.694;2023-05-15T12:40:04;9.57;;;6.72;;
25824;SDS011;13658;44.534;18.694;2023-05-15T12:42:44;8.57;;;5.40;;
25824;SDS011;13658;44.534;18.694;2023-05-15T12:45:13;7.40;;;5.95;;
25824;SDS011;13658;44.534;18.694;2023-05-15T12:47:44;10.60;;;6.72;;
25824;SDS011;13658;44.534;18.694;2023-05-15T12:50:16;6.95;;;4.93;;
25824;SDS011;13658;44.534;18.694;2023-05-15T12:57:49;8.40;;;6.18;;
25824;SDS011;13658;44.534;18.694;2023-05-15T13:00:16;7.10;;;5.82;;
25824;SDS011;13658;44.534;18.694;2023-05-15T13:02:43;11.10;;;8.82;;
25824;SDS011;13658;44.534;18.694;2023-05-15T13:05:10;9.45;;;7.72;;
25824;SDS011;13658;44.534;18.694;2023-05-15T13:07:37;12.23;;;7.90;;
25824;SDS011;13658;44.534;18.694;2023-05-15T13:10:07;11.07;;;6.15;;
25824;SDS011;13658;44.534;18.694;2023-05-15T13:12:43;10.32;;;6.45;;
25824;SDS011;13658;44.534;18.694;2023-05-15T13:18:03;12.75;;;8.05;;
25824;SDS011;13658;44.534;18.694;2023-05-15T13:20:43;15.80;;;8.75;;
25824;SDS011;13658;44.534;18.694;2023-05-15T13:23:11;15.75;;;9.18;;
25824;SDS011;13658;44.534;18.694;2023-05-15T13:25:40;13.32;;;7.75;;
25824;SDS011;13658;44.534;18.694;2023-05-15T13:28:07;10.88;;;6.22;;
25824;SDS011;13658;44.534;18.694;2023-05-15T13:30:34;11.07;;;6.75;;
25824;SDS011;13658;44.534;18.694;2023-05-15T13:33:03;19.63;;;9.25;;
25824;SDS011;13658;44.534;18.694;2023-05-15T13:35:29;8.70;;;5.93;;
25824;SDS011;13658;44.534;18.694;2023-05-15T13:37:55;14.15;;;7.88;;
25824;SDS011;13658;44.534;18.694;2023-05-15T13:40:21;11.00;;;7.55;;
25824;SDS011;13658;44.534;18.694;2023-05-15T13:42:47;10.43;;;7.13;;
25824;SDS011;13658;44.534;18.694;2023-05-15T13:45:14;10.10;;;7.95;;
25824;SDS011;13658;44.534;18.694;2023-05-15T13:47:41;11.57;;;8.52;;
25824;SDS011;13658;44.534;18.694;2023-05-15T13:50:08;11.25;;;8.77;;
25824;SDS011;13658;44.534;18.694;2023-05-15T13:52:36;14.65;;;9.65;;
25824;SDS011;13658;44.534;18.694;2023-05-15T13:55:02;21.10;;;14.57;;
25824;SDS011;13658;44.534;18.694;2023-05-15T13:57:29;11.98;;;9.35;;
25824;SDS011;13658;44.534;18.694;2023-05-15T13:59:56;12.07;;;8.73;;
25824;SDS011;13658;44.534;18.694;2023-05-15T14:02:22;12.23;;;8.15;;
25824;SDS011;13658;44.534;18.694;2023-05-15T14:04:52;12.73;;;9.50;;
25824;SDS011;13658;44.534;18.694;2023-05-15T14:07:20;11.10;;;8.98;;
25824;SDS011;13658;44.534;18.694;2023-05-15T14:09:48;13.80;;;11.00;;
25824;SDS011;13658;44.534;18.694;2023-05-15T14:12:14;19.10;;;13.48;;
25824;SDS011;13658;44.534;18.694;2023-05-15T14:14:40;20.90;;;15.50;;
25824;SDS011;13658;44.534;18.694;2023-05-15T14:17:06;23.88;;;17.30;;
25824;SDS011;13658;44.534;18.694;2023-05-15T14:19:32;46.28;;;24.88;;
25824;SDS011;13658;44.534;18.694;2023-05-15T14:21:59;39.53;;;23.75;;
25824;SDS011;13658;44.534;18.694;2023-05-15T14:24:25;53.92;;;31.58;;
25824;SDS011;13658;44.534;18.694;2023-05-15T14:26:51;64.70;;;34.25;;
25824;SDS011;13658;44.534;18.694;2023-05-15T14:29:16;71.32;;;34.95;;
25824;SDS011;13658;44.534;18.694;2023-05-15T14:31:42;88.90;;;38.17;;
25824;SDS011;13658;44.534;18.694;2023-05-15T14:34:08;128.38;;;48.97;;
25824;SDS011;13658;44.534;18.694;2023-05-15T14:36:35;165.85;;;56.60;;
25824;SDS011;13658;44.534;18.694;2023-05-15T14:39:01;138.63;;;51.95;;
25824;SDS011;13658;44.534;18.694;2023-05-15T14:41:28;144.27;;;52.20;;
25824;SDS011;13658;44.534;18.694;2023-05-15T14:43:54;136.35;;;52.70;;
25824;SDS011;13658;44.534;18.694;2023-05-15T14:46:20;116.53;;;48.25;;
25824;SDS011;13658;44.534;18.694;2023-05-15T14:48:46;111.55;;;48.63;;
25824;SDS011;13658;44.534;18.694;2023-05-15T14:51:12;98.28;;;43.05;;
25824;SDS011;13658;44.534;18.694;2023-05-15T14:53:38;99.00;;;44.60;;
25824;SDS011;13658;44.534;18.694;2023-05-15T14:56:04;98.95;;;44.75;;
25824;SDS011;13658;44.534;18.694;2023-05-15T14:58:30;96.07;;;45.22;;
25824;SDS011;13658;44.534;18.694;2023-05-15T15:00:56;98.50;;;42.53;;
25824;SDS011;13658;44.534;18.694;2023-05-15T15:03:22;96.53;;;46.63;;
25824;SDS011;13658;44.534;18.694;2023-05-15T15:05:48;82.53;;;42.15;;
25824;SDS011;13658;44.534;18.694;2023-05-15T15:08:18;80.07;;;40.78;;
25824;SDS011;13658;44.534;18.694;2023-05-15T15:10:44;76.05;;;39.90;;
25824;SDS011;13658;44.534;18.694;2023-05-15T15:13:10;70.78;;;38.17;;
25824;SDS011;13658;44.534;18.694;2023-05-15T15:15:38;70.97;;;38.58;;
25824;SDS011;13658;44.534;18.694;2023-05-15T15:18:06;71.18;;;38.22;;
25824;SDS011;13658;44.534;18.694;2023-05-15T15:20:32;74.00;;;37.90;;
25824;SDS011;13658;44.534;18.694;2023-05-15T15:22:58;67.80;;;35.70;;
25824;SDS011;13658;44.534;18.694;2023-05-15T15:25:24;68.35;;;36.55;;
25824;SDS011;13658;44.534;18.694;2023-05-15T15:27:51;91.90;;;49.67;;